createdAt,value
2019-02-14T00:00:57.498Z,21.20
2019-02-14T00:03:26.153Z,22.00
2019-02-14T00:05:54.741Z,23.90
2019-02-14T00:08:42.632Z,23.13
2019-02-14T00:11:30.548Z,22.10
2019-02-14T00:13:59.208Z,23.67
2019-02-14T00:16:29.906Z,21.33
2019-02-14T00:18:58.602Z,20.20
2019-02-14T00:21:27.308Z,22.17
2019-02-14T00:23:55.895Z,21.77
2019-02-14T00:26:24.841Z,18.73
2019-02-14T00:28:53.469Z,19.67
2019-02-14T00:31:22.127Z,20.97
2019-02-14T00:33:50.844Z,20.90
2019-02-14T00:36:20.041Z,22.87
2019-02-14T00:38:48.759Z,21.67
2019-02-14T00:41:17.535Z,20.90
2019-02-14T00:43:46.208Z,22.73
2019-02-14T00:46:14.924Z,23.87
2019-02-14T00:48:43.562Z,22.83
2019-02-14T00:51:12.211Z,24.53
2019-02-14T00:53:40.810Z,21.13
2019-02-14T00:56:09.520Z,19.73
2019-02-14T00:58:38.132Z,23.07
2019-02-14T01:01:06.736Z,23.37
2019-02-14T01:03:35.355Z,24.47
2019-02-14T01:06:04.114Z,21.83
2019-02-14T01:08:32.824Z,22.37
2019-02-14T01:11:01.409Z,21.93
2019-02-14T01:13:30.379Z,23.83
2019-02-14T01:15:58.986Z,23.97
2019-02-14T01:18:27.688Z,22.77
2019-02-14T01:20:56.275Z,21.87
2019-02-14T01:23:24.861Z,21.30
2019-02-14T01:25:53.436Z,22.33
2019-02-14T01:28:22.104Z,21.33
2019-02-14T01:30:50.764Z,23.43
2019-02-14T01:33:19.472Z,22.67
2019-02-14T01:35:48.263Z,24.37
2019-02-14T01:38:16.848Z,25.00
2019-02-14T01:40:45.436Z,22.23
2019-02-14T01:43:14.012Z,21.77
2019-02-14T01:45:42.652Z,22.97
2019-02-14T01:48:11.231Z,22.53
2019-02-14T01:50:39.848Z,24.50
2019-02-14T01:53:15.630Z,22.17
2019-02-14T01:55:51.289Z,25.57
2019-02-14T01:58:39.201Z,26.37
2019-02-14T02:01:07.789Z,24.90
2019-02-14T02:03:36.372Z,23.13
2019-02-14T02:06:04.970Z,22.97
2019-02-14T02:08:33.553Z,23.63
2019-02-14T02:11:02.158Z,20.93
2019-02-14T02:13:30.778Z,23.07
2019-02-14T02:15:59.337Z,22.60
2019-02-14T02:18:28.400Z,24.47
2019-02-14T02:20:57.260Z,21.07
2019-02-14T02:23:25.924Z,22.93
2019-02-14T02:25:54.504Z,21.73
2019-02-14T02:28:23.353Z,25.47
2019-02-14T02:30:51.947Z,23.33
2019-02-14T02:33:20.539Z,23.03
2019-02-14T02:36:00.254Z,21.33
2019-02-14T02:38:22.704Z,20.43
2019-02-14T02:40:51.284Z,22.00
2019-02-14T02:43:19.881Z,22.80
2019-02-14T02:46:07.780Z,25.70
2019-02-14T02:48:36.389Z,23.63
2019-02-14T02:51:05.005Z,23.70
2019-02-14T02:53:33.584Z,22.43
2019-02-14T02:56:02.156Z,22.27
2019-02-14T02:58:30.792Z,22.97
2019-02-14T03:00:59.412Z,24.20
2019-02-14T03:03:27.998Z,21.90
2019-02-14T03:05:56.572Z,23.10
2019-02-14T03:08:25.155Z,22.30
2019-02-14T03:10:54.181Z,24.90
2019-02-14T03:13:22.904Z,26.93
2019-02-14T03:15:51.501Z,23.47
2019-02-14T03:18:20.409Z,19.90
2019-02-14T03:20:49.368Z,21.27
2019-02-14T03:23:17.969Z,23.07
2019-02-14T03:25:46.631Z,25.47
2019-02-14T03:28:15.216Z,25.50
2019-02-14T03:30:56.351Z,25.57
2019-02-14T03:33:24.943Z,23.80
2019-02-14T03:35:53.567Z,23.50
2019-02-14T03:38:22.544Z,24.40
2019-02-14T03:40:51.133Z,26.93
2019-02-14T03:43:19.754Z,27.27
2019-02-14T03:45:48.810Z,22.00
2019-02-14T03:48:17.728Z,22.03
2019-02-14T03:50:46.408Z,22.67
2019-02-14T03:53:15.059Z,24.00
2019-02-14T03:55:43.674Z,21.80
2019-02-14T03:58:12.327Z,24.47
2019-02-14T04:00:40.948Z,21.10
2019-02-14T04:03:09.557Z,25.07
2019-02-14T04:05:38.153Z,26.47
2019-02-14T04:08:06.735Z,24.83
2019-02-14T04:10:35.326Z,22.93
2019-02-14T04:13:03.928Z,24.43
2019-02-14T04:15:32.847Z,23.20
2019-02-14T04:18:01.460Z,23.03
2019-02-14T04:20:30.035Z,22.37
2019-02-14T04:22:58.624Z,21.63
2019-02-14T04:25:27.264Z,24.00
2019-02-14T04:27:55.850Z,24.70
2019-02-14T04:30:24.507Z,25.97
2019-02-14T04:32:53.148Z,23.37
2019-02-14T04:35:21.810Z,24.53
2019-02-14T04:37:50.479Z,23.17
2019-02-14T04:40:19.059Z,21.40
2019-02-14T04:42:47.836Z,18.70
2019-02-14T04:45:16.491Z,23.63
2019-02-14T04:47:45.105Z,23.40
2019-02-14T04:50:13.676Z,20.73
2019-02-14T04:52:42.296Z,23.57
2019-02-14T04:55:10.922Z,21.07
2019-02-14T04:57:39.505Z,22.77
2019-02-14T05:00:09.393Z,19.53
2019-02-14T05:02:37.959Z,23.07
2019-02-14T05:05:06.979Z,22.63
2019-02-14T05:07:35.549Z,20.40
2019-02-14T05:10:04.994Z,19.00
2019-02-14T05:12:33.600Z,21.83
2019-02-14T05:15:02.182Z,19.03
2019-02-14T05:17:30.764Z,20.03
2019-02-14T05:19:59.353Z,19.93
2019-02-14T05:22:33.882Z,22.67
2019-02-14T05:25:02.472Z,21.13
2019-02-14T05:27:31.097Z,21.37
2019-02-14T05:29:59.735Z,20.33
2019-02-14T05:32:28.427Z,21.17
2019-02-14T05:34:57.016Z,21.47
2019-02-14T05:37:25.580Z,19.20
2019-02-14T05:39:54.160Z,17.77
2019-02-14T05:42:22.763Z,18.33
2019-02-14T05:44:51.346Z,20.27
2019-02-14T05:47:19.991Z,18.23
2019-02-14T05:49:48.743Z,20.63
2019-02-14T05:52:17.311Z,17.27
2019-02-14T05:54:45.897Z,18.30
2019-02-14T05:57:14.487Z,17.80
2019-02-14T05:59:43.056Z,18.57
2019-02-14T06:02:11.680Z,17.97
2019-02-14T06:04:40.356Z,18.87
2019-02-14T06:07:08.951Z,17.97
2019-02-14T06:09:37.565Z,18.27
2019-02-14T06:12:06.155Z,20.10
2019-02-14T06:14:34.749Z,18.57
2019-02-14T06:17:03.315Z,20.50
2019-02-14T06:19:31.932Z,19.87
2019-02-14T06:22:00.518Z,20.40
2019-02-14T06:24:29.163Z,20.80
2019-02-14T06:26:57.815Z,18.97
2019-02-14T06:29:26.422Z,19.63
2019-02-14T06:31:55.326Z,19.07
2019-02-14T06:34:23.935Z,19.47
2019-02-14T06:36:52.541Z,19.03
2019-02-14T06:39:40.469Z,19.10
2019-02-14T06:42:09.051Z,18.53
2019-02-14T06:44:37.640Z,19.47
2019-02-14T06:47:06.249Z,19.70
2019-02-14T06:49:34.852Z,21.53
2019-02-14T06:52:03.468Z,19.77
2019-02-14T06:54:34.292Z,19.37
2019-02-14T06:57:02.872Z,21.03
2019-02-14T06:59:31.812Z,19.50
2019-02-14T07:02:00.431Z,21.13
2019-02-14T07:04:29.076Z,20.07
2019-02-14T07:06:57.669Z,18.40
2019-02-14T07:09:26.323Z,21.83
2019-02-14T07:11:54.943Z,21.13
2019-02-14T07:14:23.511Z,18.37
2019-02-14T07:16:52.129Z,19.77
2019-02-14T07:19:22.832Z,21.07
2019-02-14T07:21:51.047Z,19.17
2019-02-14T07:24:19.666Z,21.10
2019-02-14T07:26:48.423Z,19.00
2019-02-14T07:29:16.996Z,20.50
2019-02-14T07:31:45.653Z,20.80
2019-02-14T07:34:14.261Z,20.27
2019-02-14T07:36:42.884Z,21.53
2019-02-14T07:39:11.511Z,19.27
2019-02-14T07:41:40.207Z,22.80
2019-02-14T07:44:08.806Z,22.47
2019-02-14T07:46:37.407Z,21.20
2019-02-14T07:49:05.996Z,20.37
2019-02-14T07:51:34.596Z,17.63
2019-02-14T07:54:03.263Z,20.63
2019-02-14T07:56:31.845Z,22.90
2019-02-14T07:59:00.441Z,19.47
2019-02-14T08:01:29.325Z,19.17
2019-02-14T08:03:57.892Z,20.63
2019-02-14T08:06:26.500Z,20.47
2019-02-14T08:08:55.125Z,19.13
2019-02-14T08:11:23.712Z,21.00
2019-02-14T08:13:52.308Z,22.37
2019-02-14T08:16:20.909Z,19.83
2019-02-14T08:18:49.690Z,18.57
2019-02-14T08:21:18.339Z,19.67
2019-02-14T08:23:46.986Z,17.73
2019-02-14T08:26:15.642Z,17.43
2019-02-14T08:28:44.264Z,18.47
2019-02-14T08:31:12.832Z,18.43
2019-02-14T08:33:41.415Z,17.53
2019-02-14T08:36:10.024Z,20.27
2019-02-14T08:38:38.637Z,17.10
2019-02-14T08:41:07.245Z,18.67
2019-02-14T08:43:35.841Z,17.87
2019-02-14T08:46:04.525Z,20.37
2019-02-14T08:48:33.156Z,19.43
2019-02-14T08:51:01.776Z,19.03
2019-02-14T08:53:30.421Z,17.87
2019-02-14T08:55:59.068Z,17.03
2019-02-14T08:58:27.944Z,17.17
2019-02-14T09:00:56.551Z,18.83
2019-02-14T09:03:25.136Z,16.43
2019-02-14T09:05:53.708Z,15.83
2019-02-14T09:08:22.328Z,19.27
2019-02-14T09:10:50.965Z,20.20
2019-02-14T09:13:19.549Z,18.00
2019-02-14T09:15:48.286Z,18.30
2019-02-14T09:18:16.913Z,17.63
2019-02-14T09:20:45.800Z,19.03
2019-02-14T09:23:14.852Z,19.03
2019-02-14T09:25:49.881Z,18.83
2019-02-14T09:28:18.529Z,18.60
2019-02-14T09:30:47.170Z,19.67
2019-02-14T09:33:15.777Z,19.67
2019-02-14T09:35:44.466Z,18.07
2019-02-14T09:38:13.385Z,17.47
2019-02-14T09:40:42.060Z,17.23
2019-02-14T09:43:10.709Z,18.53
2019-02-14T09:45:39.307Z,18.60
2019-02-14T09:48:07.891Z,18.90
2019-02-14T09:50:36.570Z,19.13
2019-02-14T09:53:05.153Z,18.70
2019-02-14T09:55:33.759Z,18.90
2019-02-14T09:58:02.351Z,18.23
2019-02-14T10:00:30.950Z,19.00
2019-02-14T10:02:59.560Z,18.83
2019-02-14T10:05:28.212Z,17.87
2019-02-14T10:07:57.064Z,18.63
2019-02-14T10:10:25.634Z,18.70
2019-02-14T10:12:54.211Z,19.70
2019-02-14T10:15:22.797Z,19.03
2019-02-14T10:17:51.380Z,18.87
2019-02-14T10:20:19.979Z,17.73
2019-02-14T10:22:49.010Z,17.93
2019-02-14T10:25:17.643Z,19.63
2019-02-14T10:27:46.335Z,19.33
2019-02-14T10:30:16.836Z,18.07
2019-02-14T10:32:45.444Z,16.73
2019-02-14T10:35:14.137Z,18.87
2019-02-14T10:37:42.809Z,16.77
2019-02-14T10:40:12.163Z,17.03
2019-02-14T10:42:40.803Z,17.10
2019-02-14T10:45:11.901Z,18.07
2019-02-14T10:47:40.484Z,18.33
2019-02-14T10:50:10.020Z,17.87
2019-02-14T10:52:38.625Z,16.73
2019-02-14T10:55:08.883Z,18.37
2019-02-14T10:57:37.502Z,19.10
2019-02-14T11:00:16.103Z,18.70
2019-02-14T11:02:44.603Z,17.60
2019-02-14T11:05:13.892Z,17.17
2019-02-14T11:07:42.519Z,17.17
2019-02-14T11:10:11.163Z,17.83
2019-02-14T11:12:39.786Z,17.03
2019-02-14T11:15:09.704Z,16.40
2019-02-14T11:17:38.331Z,17.50
2019-02-14T11:20:07.993Z,17.53
2019-02-14T11:22:36.616Z,15.93
2019-02-14T11:25:06.074Z,15.40
2019-02-14T11:27:34.699Z,16.23
2019-02-14T11:30:03.333Z,15.37
2019-02-14T11:32:31.983Z,16.57
2019-02-14T11:35:13.260Z,15.30
2019-02-14T11:37:41.864Z,15.20
2019-02-14T11:40:11.072Z,15.63
2019-02-14T11:42:39.677Z,16.23
2019-02-14T11:45:10.802Z,14.77
2019-02-14T11:47:39.462Z,15.63
2019-02-14T11:50:09.296Z,15.30
2019-02-14T11:52:38.549Z,16.33
2019-02-14T11:55:07.148Z,17.00
2019-02-14T11:57:35.751Z,15.90
2019-02-14T12:00:05.701Z,14.50
2019-02-14T12:02:34.279Z,13.57
2019-02-14T12:05:02.881Z,14.60
2019-02-14T12:07:34.457Z,14.43
2019-02-14T12:10:12.750Z,15.97
2019-02-14T12:12:33.691Z,13.40
2019-02-14T12:15:02.268Z,12.13
2019-02-14T12:17:30.865Z,12.57
2019-02-14T12:19:59.460Z,11.47
2019-02-14T12:22:28.108Z,11.90
2019-02-14T12:24:56.724Z,11.40
2019-02-14T12:27:25.331Z,11.80
2019-02-14T12:29:53.955Z,11.50
2019-02-14T12:32:22.617Z,11.13
2019-02-14T12:34:51.178Z,12.17
2019-02-14T12:37:19.770Z,11.50
2019-02-14T12:39:51.389Z,12.17
2019-02-14T12:42:20.288Z,11.23
2019-02-14T12:44:51.290Z,12.20
2019-02-14T12:47:19.892Z,12.03
2019-02-14T12:49:48.606Z,12.03
2019-02-14T12:52:17.480Z,12.30
2019-02-14T12:54:46.186Z,11.07
2019-02-14T12:57:14.782Z,11.07
2019-02-14T12:59:43.397Z,10.70
2019-02-14T13:02:12.009Z,10.53
2019-02-14T13:04:40.680Z,9.70
2019-02-14T13:07:09.327Z,9.60
2019-02-14T13:09:37.922Z,9.50
2019-02-14T13:12:06.515Z,8.87
2019-02-14T13:14:35.387Z,8.80
2019-02-14T13:17:03.973Z,9.30
2019-02-14T13:19:32.980Z,9.50
2019-02-14T13:22:01.889Z,9.33
2019-02-14T13:24:30.768Z,9.07
2019-02-14T13:26:59.347Z,10.17
2019-02-14T13:29:27.943Z,9.73
2019-02-14T13:31:56.545Z,9.93
2019-02-14T13:34:25.236Z,13.40
2019-02-14T13:37:01.318Z,13.97
2019-02-14T13:39:29.675Z,12.50
2019-02-14T13:41:54.913Z,13.40
2019-02-14T13:44:24.312Z,13.27
2019-02-14T13:46:53.028Z,11.70
2019-02-14T13:49:21.642Z,13.13
2019-02-14T13:51:50.364Z,13.83
2019-02-14T13:54:18.953Z,13.53
2019-02-14T13:56:53.874Z,14.47
2019-02-14T13:59:18.067Z,15.03
2019-02-14T14:01:46.756Z,12.47
2019-02-14T14:04:15.339Z,13.53
2019-02-14T14:06:44.011Z,13.27
2019-02-14T14:09:12.592Z,11.43
2019-02-14T14:11:41.188Z,11.97
2019-02-14T14:14:09.755Z,10.27
2019-02-14T14:16:38.368Z,9.80
2019-02-14T14:19:06.997Z,11.53
2019-02-14T14:21:35.577Z,10.47
2019-02-14T14:24:06.161Z,10.90
2019-02-14T14:26:34.537Z,10.33
2019-02-14T14:29:03.119Z,10.30
2019-02-14T14:31:31.813Z,11.33
2019-02-14T14:34:00.400Z,10.77
2019-02-14T14:36:29.072Z,10.77
2019-02-14T14:38:57.732Z,10.77
2019-02-14T14:41:26.336Z,10.77
2019-02-14T14:44:09.001Z,9.57
2019-02-14T14:46:48.252Z,9.73
2019-02-14T14:49:16.935Z,10.20
2019-02-14T14:51:45.513Z,9.70
2019-02-14T14:54:14.104Z,9.87
2019-02-14T14:56:42.683Z,9.73
2019-02-14T14:59:11.304Z,10.10
2019-02-14T15:01:39.883Z,9.63
2019-02-14T15:07:07.255Z,10.67
2019-02-14T15:09:35.835Z,11.17
2019-02-14T15:12:04.446Z,11.00
2019-02-14T15:14:33.060Z,11.27
2019-02-14T15:17:01.656Z,11.90
2019-02-14T15:19:30.331Z,11.10
2019-02-14T15:21:59.037Z,11.80
2019-02-14T15:24:27.730Z,12.23
2019-02-14T15:26:56.314Z,11.60
2019-02-14T15:29:24.990Z,12.60
2019-02-14T15:31:53.569Z,10.93
2019-02-14T15:34:25.292Z,12.53
2019-02-14T15:36:54.173Z,11.67
2019-02-14T15:39:22.790Z,12.57
2019-02-14T15:41:51.373Z,12.70
2019-02-14T15:44:20.062Z,11.80
2019-02-14T15:46:49.131Z,12.57
2019-02-14T15:49:17.843Z,11.10
2019-02-14T15:51:46.530Z,12.47
2019-02-14T15:54:15.227Z,13.00
2019-02-14T15:56:44.136Z,14.07
2019-02-14T15:59:12.759Z,13.00
2019-02-14T16:02:00.777Z,12.40
2019-02-14T16:04:31.247Z,13.47
2019-02-14T16:06:59.721Z,14.43
2019-02-14T16:09:28.413Z,13.67
2019-02-14T16:11:58.024Z,13.63
2019-02-14T16:14:26.883Z,12.40
2019-02-14T16:16:55.488Z,12.53
2019-02-14T16:19:24.068Z,14.60
2019-02-14T16:21:54.265Z,14.63
2019-02-14T16:24:23.088Z,13.20
2019-02-14T16:26:51.684Z,13.90
2019-02-14T16:29:20.264Z,14.13
2019-02-14T16:31:49.242Z,13.27
2019-02-14T16:34:17.831Z,12.00
2019-02-14T16:36:46.532Z,12.47
2019-02-14T16:39:15.388Z,14.00
2019-02-14T16:41:43.996Z,13.33
2019-02-14T16:44:12.567Z,13.40
2019-02-14T16:46:41.152Z,13.73
2019-02-14T16:49:09.739Z,12.23
2019-02-14T16:51:38.525Z,12.73
2019-02-14T16:54:07.277Z,13.97
2019-02-14T16:56:35.883Z,11.73
2019-02-14T16:59:07.097Z,13.03
2019-02-14T17:01:35.803Z,13.53
2019-02-14T17:04:04.409Z,12.57
2019-02-14T17:06:33.003Z,11.67
2019-02-14T17:09:06.799Z,12.83
2019-02-14T17:11:35.555Z,12.07
2019-02-14T17:14:23.782Z,12.70
2019-02-14T17:16:52.448Z,14.37
2019-02-14T17:19:21.361Z,14.23
2019-02-14T17:21:50.013Z,14.00
2019-02-14T17:24:18.675Z,14.07
2019-02-14T17:26:48.588Z,17.57
2019-02-14T17:29:17.181Z,16.63
2019-02-14T17:31:45.800Z,17.47
2019-02-14T17:34:14.513Z,15.73
2019-02-14T17:36:43.156Z,17.83
2019-02-14T17:39:12.153Z,19.57
2019-02-14T17:41:40.926Z,19.80
2019-02-14T17:44:09.608Z,20.77
2019-02-14T17:46:38.271Z,22.43
2019-02-14T17:49:06.856Z,19.77
2019-02-14T17:51:35.517Z,14.53
2019-02-14T17:54:04.160Z,13.50
2019-02-14T17:56:33.373Z,15.10
2019-02-14T17:59:02.665Z,13.93
2019-02-14T18:01:31.596Z,14.20
2019-02-14T18:04:00.196Z,13.13
2019-02-14T18:06:28.918Z,14.77
2019-02-14T18:09:06.362Z,14.57
2019-02-14T18:11:35.047Z,13.33
2019-02-14T18:14:03.777Z,12.27
2019-02-14T18:16:35.497Z,13.00
2019-02-14T18:19:07.093Z,13.83
2019-02-14T18:21:36.012Z,11.67
2019-02-14T18:24:04.792Z,11.93
2019-02-14T18:26:33.397Z,11.93
2019-02-14T18:29:02.077Z,14.50
2019-02-14T18:31:30.650Z,13.73
2019-02-14T18:33:59.256Z,13.30
2019-02-14T18:36:27.999Z,11.97
2019-02-14T18:38:56.645Z,11.77
2019-02-14T18:41:25.447Z,12.70
2019-02-14T18:43:54.204Z,12.43
2019-02-14T18:46:22.816Z,11.90
2019-02-14T18:48:51.403Z,12.23
2019-02-14T18:51:20.052Z,12.90
2019-02-14T18:53:48.803Z,12.13
2019-02-14T18:56:19.116Z,13.23
2019-02-14T18:58:47.878Z,12.00
2019-02-14T19:01:16.576Z,10.90
2019-02-14T19:03:45.244Z,12.27
2019-02-14T19:06:13.954Z,13.00
2019-02-14T19:08:42.552Z,12.50
2019-02-14T19:11:15.229Z,13.77
2019-02-14T19:13:41.479Z,13.33
2019-02-14T19:16:10.079Z,13.33
2019-02-14T19:18:38.699Z,11.87
2019-02-14T19:21:07.305Z,12.50
2019-02-14T19:23:35.916Z,13.40
2019-02-14T19:26:04.537Z,13.37
2019-02-14T19:28:33.193Z,11.67
2019-02-14T19:31:01.833Z,13.37
2019-02-14T19:33:30.579Z,12.03
2019-02-14T19:35:59.208Z,13.23
2019-02-14T19:38:40.491Z,13.17
2019-02-14T19:41:09.146Z,14.67
2019-02-14T19:43:37.733Z,13.90
2019-02-14T19:46:06.339Z,12.07
2019-02-14T19:48:34.977Z,13.47
2019-02-14T19:51:03.977Z,13.30
2019-02-14T19:53:32.559Z,13.57
2019-02-14T19:56:01.156Z,13.90
2019-02-14T19:58:29.738Z,14.43
2019-02-14T20:00:58.335Z,15.17
2019-02-14T20:03:26.953Z,13.53
2019-02-14T20:06:14.972Z,14.70
2019-02-14T20:09:03.149Z,13.60
2019-02-14T20:11:36.677Z,13.33
2019-02-14T20:14:02.500Z,14.30
2019-02-14T20:16:31.111Z,13.07
2019-02-14T20:19:00.120Z,13.20
2019-02-14T20:21:28.863Z,14.53
2019-02-14T20:23:57.724Z,13.80
2019-02-14T20:26:26.404Z,10.30
2019-02-14T20:28:54.988Z,14.90
2019-02-14T20:31:23.644Z,12.73
2019-02-14T20:33:52.302Z,12.77
2019-02-14T20:36:20.897Z,12.80
2019-02-14T20:38:49.613Z,11.70
2019-02-14T20:41:18.291Z,12.63
2019-02-14T20:43:47.101Z,12.43
2019-02-14T20:46:15.738Z,12.10
2019-02-14T20:48:44.329Z,12.60
2019-02-14T20:51:13.199Z,11.70
2019-02-14T20:53:41.826Z,12.43
2019-02-14T20:56:10.411Z,14.90
2019-02-14T20:58:39.040Z,12.43
2019-02-14T21:01:09.071Z,11.67
2019-02-14T21:03:37.732Z,13.17
2019-02-14T21:06:06.584Z,12.63
2019-02-14T21:08:35.207Z,12.70
2019-02-14T21:11:04.061Z,11.33
2019-02-14T21:13:32.832Z,11.07
2019-02-14T21:16:01.787Z,11.93
2019-02-14T21:18:30.385Z,12.07
2019-02-14T21:20:59.020Z,12.37
2019-02-14T21:23:27.674Z,12.53
2019-02-14T21:25:56.315Z,12.03
2019-02-14T21:28:24.962Z,11.37
2019-02-14T21:30:53.805Z,10.50
2019-02-14T21:33:22.417Z,11.90
2019-02-14T21:35:51.002Z,11.17
2019-02-14T21:38:19.592Z,11.60
2019-02-14T21:40:48.487Z,13.53
2019-02-14T21:43:17.099Z,13.23
2019-02-14T21:45:45.685Z,12.47
2019-02-14T21:48:14.301Z,11.50
2019-02-14T21:50:42.959Z,11.57
2019-02-14T21:53:11.617Z,12.33
2019-02-14T21:55:40.416Z,11.27
2019-02-14T21:58:09.334Z,11.67
2019-02-14T22:00:38.010Z,11.87
2019-02-14T22:03:06.629Z,12.67
2019-02-14T22:05:35.229Z,11.13
2019-02-14T22:08:03.859Z,12.93
2019-02-14T22:10:32.510Z,11.50
2019-02-14T22:13:01.245Z,10.70
2019-02-14T22:15:29.868Z,11.20
2019-02-14T22:17:58.504Z,12.13
2019-02-14T22:20:27.167Z,11.03
2019-02-14T22:22:55.769Z,11.63
2019-02-14T22:25:24.724Z,11.13
2019-02-14T22:27:53.303Z,11.40
2019-02-14T22:30:21.897Z,11.73
2019-02-14T22:32:50.669Z,12.50
2019-02-14T22:35:27.333Z,14.20
2019-02-14T22:37:55.901Z,13.03
2019-02-14T22:40:24.505Z,12.13
2019-02-14T22:42:53.089Z,12.00
2019-02-14T22:45:21.673Z,12.30
2019-02-14T22:47:50.284Z,10.90
2019-02-14T22:50:18.914Z,10.60
2019-02-14T22:52:47.657Z,10.60
2019-02-14T22:55:16.293Z,11.80
2019-02-14T22:57:44.889Z,11.23
2019-02-14T23:00:34.670Z,11.63
2019-02-14T23:03:03.327Z,9.97
2019-02-14T23:05:31.960Z,11.17
2019-02-14T23:08:01.383Z,10.50
2019-02-14T23:10:30.038Z,12.20
2019-02-14T23:12:58.618Z,11.27
2019-02-14T23:15:27.296Z,12.53
2019-02-14T23:17:55.924Z,10.77
2019-02-14T23:20:24.595Z,11.50
2019-02-14T23:22:53.200Z,11.03
2019-02-14T23:25:21.797Z,11.10
2019-02-14T23:27:50.481Z,12.03
2019-02-14T23:30:19.066Z,11.40
2019-02-14T23:32:47.893Z,11.73
2019-02-14T23:35:16.743Z,10.90
2019-02-14T23:37:45.336Z,10.70
2019-02-14T23:40:13.945Z,10.83
2019-02-14T23:42:42.520Z,10.10
2019-02-14T23:45:11.111Z,11.13
2019-02-14T23:47:39.764Z,10.50
2019-02-14T23:50:08.463Z,9.37
2019-02-14T23:52:37.053Z,9.97
2019-02-14T23:55:05.704Z,9.93
2019-02-14T23:57:34.335Z,10.40
